Time;durP1;ratioP1;P1;durP2;ratioP2;P2;SDS_P1;SDS_P2;PMS_P1;PMS_P2;Temp;Humidity;BMP_temperature;BMP_pressure;BME280_temperature;BME280_humidity;BME280_pressure;Samples;Min_cycle;Max_cycle;Signal;HPM_P1;HPM_P2
2023/08/12 00:01:40;;;;;;;;;;;;;;;;;;5072057;28;20378;-66
2023/08/12 00:04:06;;;;;;;;;;;;;;;;;;5069565;28;19947;-67
2023/08/12 00:06:32;;;;;;;;;;;;;;;;;;5060602;28;20330;-66
2023/08/12 00:08:58;;;;;;;;;;;;;;;;;;5067819;28;19983;-66
2023/08/12 00:11:24;;;;;;;;;;;;;;;;;;5071481;28;20015;-66
2023/08/12 00:13:50;;;;;;;;;;;;;;;;;;5062788;28;19913;-66
2023/08/12 00:16:16;;;;;;;;;;;;;;;;;;5057636;28;19970;-66
2023/08/12 00:18:42;;;;;;;;;;;;;;;;;;5065458;28;20035;-66
2023/08/12 00:21:09;;;;;;;;;;;;;;;;;;5071708;28;19919;-66
2023/08/12 00:23:35;;;;;;;;;;;;;;;;;;5072205;28;20471;-66
2023/08/12 00:26:01;;;;;;;;;;;;;;;;;;5072480;28;19991;-73
2023/08/12 00:28:27;;;;;;;;;;;;;;;;;;5070158;28;19924;-71
2023/08/12 00:30:53;;;;;;;;;;;;;;;;;;5054608;28;19955;-72
2023/08/12 00:33:19;;;;;;;;;;;;;;;;;;5052999;28;19913;-72
2023/08/12 00:35:45;;;;;;;;;;;;;;;;;;5064493;28;19969;-73
2023/08/12 00:38:11;;;;;;;;;;;;;;;;;;5071411;28;20334;-72
2023/08/12 00:40:37;;;;;;;;;;;;;;;;;;5071928;28;20012;-72
2023/08/12 00:43:03;;;;;;;;;;;;;;;;;;5065572;28;19913;-72
2023/08/12 00:45:29;;;;;;;;;;;;;;;;;;5070531;28;19916;-72
2023/08/12 00:47:55;;;;;;;;;;;;;;;;;;5069939;28;19924;-72
2023/08/12 00:50:21;;;;;;;;;;;;;;;;;;5064602;28;19952;-72
2023/08/12 00:52:46;;;;;;;;;;;;;;;;;;5058079;28;19919;-71
2023/08/12 00:55:12;;;;;;;;;;;;;;;;;;5062823;28;20283;-72
2023/08/12 00:57:38;;;;;;;;;;;;;;;;;;5061167;28;19923;-72
2023/08/12 01:00:04;;;;;;;;;;;;;;;;;;5075403;28;19919;-72
2023/08/12 01:02:30;;;;;;;;;;;;;;;;;;5075902;28;20372;-72
2023/08/12 01:04:56;;;;;;;;;;;;;;;;;;5072428;28;19913;-72
2023/08/12 01:07:22;;;;;;;;;;;;;;;;;;5058354;28;19909;-73
2023/08/12 01:09:48;;;;;;;;;;;;;;;;;;5075072;28;19943;-71
2023/08/12 01:12:14;;;;;;;;;;;;;;;;;;5074323;28;20010;-72
2023/08/12 01:14:39;;;;;;;;;;;;;;;;;;5064920;28;20287;-72
2023/08/12 01:17:05;;;;;;;;;;;;;;;;;;5075435;28;19921;-73
2023/08/12 01:19:31;;;;;;;;;;;;;;;;;;5075394;28;19927;-73
2023/08/12 01:21:57;;;;;;;;;;;;;;;;;;5070443;28;19912;-71
2023/08/12 01:24:23;;;;;;;;;;;;;;;;;;5074233;28;19920;-72
2023/08/12 01:26:49;;;;;;;;;;;;;;;;;;5070998;28;20399;-72
2023/08/12 01:29:15;;;;;;;;;;;;;;;;;;5070609;28;19921;-72
2023/08/12 01:31:41;;;;;;;;;;;;;;;;;;5060995;28;19969;-73
2023/08/12 01:34:07;;;;;;;;;;;;;;;;;;5069665;28;19913;-73
2023/08/12 01:36:32;;;;;;;;;;;;;;;;;;5068179;28;19951;-65
2023/08/12 01:38:58;;;;;;;;;;;;;;;;;;5069880;28;20011;-66
2023/08/12 01:41:24;;;;;;;;;;;;;;;;;;5059388;28;19955;-65
2023/08/12 01:43:50;;;;;;;;;;;;;;;;;;5072795;28;20365;-66
2023/08/12 01:46:16;;;;;;;;;;;;;;;;;;5070077;28;20446;-65
2023/08/12 01:48:42;;;;;;;;;;;;;;;;;;5068264;28;19929;-65
2023/08/12 01:51:08;;;;;;;;;;;;;;;;;;5069477;28;20498;-65
2023/08/12 01:53:34;;;;;;;;;;;;;;;;;;5065521;28;19919;-65
2023/08/12 01:56:00;;;;;;;;;;;;;;;;;;5074200;28;19958;-65
2023/08/12 01:58:28;;;;;;;;;;;;;;;;;;5063608;28;19951;-64
2023/08/12 02:00:54;;;;;;;;;;;;;;;;;;5058496;28;19935;-65
2023/08/12 02:03:20;;;;;;;;;;;;;;;;;;5064121;28;19912;-65
2023/08/12 02:05:46;;;;;;;;;;;;;;;;;;5073235;28;19919;-66
2023/08/12 02:08:12;;;;;;;;;;;;;;;;;;5073061;28;20011;-65
2023/08/12 02:10:38;;;;;;;;;;;;;;;;;;5072357;28;20011;-66
2023/08/12 02:13:04;;;;;;;;;;;;;;;;;;5069480;28;20347;-65
2023/08/12 02:15:30;;;;;;;;;;;;;;;;;;5069590;28;20334;-65
2023/08/12 02:17:56;;;;;;;;;;;;;;;;;;5071666;28;20307;-65
2023/08/12 02:20:22;;;;;;;;;;;;;;;;;;5073349;28;19946;-65
2023/08/12 02:22:48;;;;;;;;;;;;;;;;;;5066541;28;19956;-65
2023/08/12 02:25:14;;;;;;;;;;;;;;;;;;5073523;28;19912;-65
2023/08/12 02:27:41;;;;;;;;;;;;;;;;;;5065484;28;20024;-65
2023/08/12 02:30:06;;;;;;;;;;;;;;;;;;5072381;28;20414;-65
2023/08/12 02:32:32;;;;;;;;;;;;;;;;;;5071828;28;19943;-65
2023/08/12 02:34:58;;;;;;;;;;;;;;;;;;5064437;28;19922;-65
2023/08/12 02:37:24;;;;;;;;;;;;;;;;;;5063836;28;19913;-65
2023/08/12 02:39:50;;;;;;;;;;;;;;;;;;5069967;28;19913;-66
2023/08/12 02:42:16;;;;;;;;;;;;;;;;;;5073846;28;19946;-65
2023/08/12 02:44:42;;;;;;;;;;;;;;;;;;5072046;28;19958;-67
2023/08/12 02:47:08;;;;;;;;;;;;;;;;;;5064449;28;19916;-73
2023/08/12 02:49:34;;;;;;;;;;;;;;;;;;5073248;28;19965;-72
2023/08/12 02:52:00;;;;;;;;;;;;;;;;;;5071365;28;20333;-71
2023/08/12 02:54:25;;;;;;;;;;;;;;;;;;5065510;28;20380;-72
2023/08/12 02:56:51;;;;;;;;;;;;;;;;;;5064983;28;19970;-72
2023/08/12 02:59:17;;;;;;;;;;;;;;;;;;5063939;28;19912;-72
2023/08/12 03:01:43;;;;;;;;;;;;;;;;;;5067147;28;19912;-72
2023/08/12 03:04:09;;;;;;;;;;;;;;;;;;5062812;28;19923;-73
2023/08/12 03:06:35;;;;;;;;;;;;;;;;;;5070356;28;20003;-72
2023/08/12 03:09:01;;;;;;;;;;;;;;;;;;5056602;28;20042;-72
2023/08/12 03:11:27;;;;;;;;;;;;;;;;;;5072962;28;19923;-72
2023/08/12 03:13:53;;;;;;;;;;;;;;;;;;5066803;28;19913;-72
2023/08/12 03:16:19;;;;;;;;;;;;;;;;;;5063621;28;19963;-72
2023/08/12 03:18:44;;;;;;;;;;;;;;;;;;5064842;28;19912;-71
2023/08/12 03:21:10;;;;;;;;;;;;;;;;;;5072910;28;19913;-72
2023/08/12 03:23:36;;;;;;;;;;;;;;;;;;5071929;28;20384;-72
2023/08/12 03:26:02;;;;;;;;;;;;;;;;;;5064865;28;19924;-72
2023/08/12 03:28:28;;;;;;;;;;;;;;;;;;5061825;28;20375;-71
2023/08/12 03:30:54;;;;;;;;;;;;;;;;;;5066728;28;19948;-73
2023/08/12 03:33:20;;;;;;;;;;;;;;;;;;5067166;28;19927;-71
2023/08/12 03:35:46;;;;;;;;;;;;;;;;;;5072179;28;20382;-72
2023/08/12 03:38:12;;;;;;;;;;;;;;;;;;5070254;28;20323;-71
2023/08/12 03:40:38;;;;;;;;;;;;;;;;;;5072155;28;19923;-72
2023/08/12 03:43:04;;;;;;;;;;;;;;;;;;5070059;28;20002;-72
2023/08/12 03:45:30;;;;;;;;;;;;;;;;;;5072740;28;20253;-72
2023/08/12 03:47:56;;;;;;;;;;;;;;;;;;5072451;28;19917;-72
2023/08/12 03:50:22;;;;;;;;;;;;;;;;;;5071498;28;19920;-72
2023/08/12 03:52:47;;;;;;;;;;;;;;;;;;5062790;28;20389;-72
2023/08/12 03:55:13;;;;;;;;;;;;;;;;;;5055195;28;19916;-72
2023/08/12 03:57:39;;;;;;;;;;;;;;;;;;5052910;28;20426;-75
2023/08/12 04:00:07;;;;;;;;;;;;;;;;;;5051825;28;20047;-75
2023/08/12 04:02:33;;;;;;;;;;;;;;;;;;5051718;28;19959;-74
2023/08/12 04:04:59;;;;;;;;;;;;;;;;;;5066967;28;19948;-75
2023/08/12 04:07:26;;;;;;;;;;;;;;;;;;5070300;28;19908;-72
2023/08/12 04:09:52;;;;;;;;;;;;;;;;;;5065206;28;19909;-74
2023/08/12 04:12:18;;;;;;;;;;;;;;;;;;5078433;28;19916;-74
2023/08/12 04:14:44;;;;;;;;;;;;;;;;;;5069274;28;20768;-75
2023/08/12 04:17:10;;;;;;;;;;;;;;;;;;5067309;28;20014;-74
2023/08/12 04:19:36;;;;;;;;;;;;;;;;;;5056403;28;20403;-75
2023/08/12 04:22:02;;;;;;;;;;;;;;;;;;5069861;28;19920;-72
2023/08/12 04:24:28;;;;;;;;;;;;;;;;;;5070112;28;19948;-74
2023/08/12 04:26:54;;;;;;;;;;;;;;;;;;5071639;28;19916;-75
2023/08/12 04:29:20;;;;;;;;;;;;;;;;;;5064034;28;19966;-73
2023/08/12 04:31:45;;;;;;;;;;;;;;;;;;5077792;28;19908;-74
2023/08/12 04:34:11;;;;;;;;;;;;;;;;;;5077066;28;19916;-74
2023/08/12 04:36:37;;;;;;;;;;;;;;;;;;5077807;28;19918;-74
2023/08/12 04:39:04;;;;;;;;;;;;;;;;;;5077693;28;19913;-74
2023/08/12 04:41:30;;;;;;;;;;;;;;;;;;5077697;28;19995;-75
2023/08/12 04:43:56;;;;;;;;;;;;;;;;;;5074777;28;20391;-74
2023/08/12 04:46:22;;;;;;;;;;;;;;;;;;5078093;28;19912;-73
2023/08/12 04:48:48;;;;;;;;;;;;;;;;;;5073586;28;20260;-74
2023/08/12 04:51:14;;;;;;;;;;;;;;;;;;5074769;28;19988;-73
2023/08/12 04:53:40;;;;;;;;;;;;;;;;;;5076378;28;19916;-74
2023/08/12 04:56:07;;;;;;;;;;;;;;;;;;5076567;28;20356;-74
2023/08/12 04:58:33;;;;;;;;;;;;;;;;;;5077370;28;19966;-74
2023/08/12 05:00:58;;;;;;;;;;;;;;;;;;5073726;28;19967;-74
2023/08/12 05:03:25;;;;;;;;;;;;;;;;;;5072603;28;19952;-74
2023/08/12 05:05:51;;;;;;;;;;;;;;;;;;5076477;28;19958;-74
2023/08/12 05:08:17;;;;;;;;;;;;;;;;;;5077761;28;20019;-71
2023/08/12 05:10:43;;;;;;;;;;;;;;;;;;5076541;28;20098;-71
2023/08/12 05:13:09;;;;;;;;;;;;;;;;;;5077562;28;19912;-72
2023/08/12 05:15:36;;;;;;;;;;;;;;;;;;5074765;28;19912;-72
2023/08/12 05:18:02;;;;;;;;;;;;;;;;;;5072899;28;20034;-71
2023/08/12 05:20:28;;;;;;;;;;;;;;;;;;5068605;28;20017;-71
2023/08/12 05:22:54;;;;;;;;;;;;;;;;;;5077799;28;19992;-71
2023/08/12 05:25:20;;;;;;;;;;;;;;;;;;5071891;28;19916;-72
2023/08/12 05:27:46;;;;;;;;;;;;;;;;;;5076237;28;19912;-72
2023/08/12 05:30:12;;;;;;;;;;;;;;;;;;5070952;28;20005;-71
2023/08/12 05:32:38;;;;;;;;;;;;;;;;;;5072097;28;19948;-71
2023/08/12 05:35:03;;;;;;;;;;;;;;;;;;5069269;28;19913;-71
2023/08/12 05:37:29;;;;;;;;;;;;;;;;;;5072939;28;19963;-70
2023/08/12 05:39:55;;;;;;;;;;;;;;;;;;5068597;28;19923;-73
2023/08/12 05:42:21;;;;;;;;;;;;;;;;;;5065996;28;19913;-72
2023/08/12 05:44:47;;;;;;;;;;;;;;;;;;5059329;28;19963;-72
2023/08/12 05:47:13;;;;;;;;;;;;;;;;;;5068145;28;20000;-72
2023/08/12 05:49:39;;;;;;;;;;;;;;;;;;5067375;28;19920;-72
2023/08/12 05:52:05;;;;;;;;;;;;;;;;;;5070825;28;20281;-73
2023/08/12 05:54:31;;;;;;;;;;;;;;;;;;5065846;28;20061;-72
2023/08/12 05:56:57;;;;;;;;;;;;;;;;;;5073989;28;19913;-72
2023/08/12 05:59:22;;;;;;;;;;;;;;;;;;5065076;28;19998;-73
2023/08/12 06:01:48;;;;;;;;;;;;;;;;;;5072038;28;20015;-72
2023/08/12 06:04:14;;;;;;;;;;;;;;;;;;5065442;28;20401;-71
2023/08/12 06:06:40;;;;;;;;;;;;;;;;;;5073847;28;20030;-73
2023/08/12 06:09:06;;;;;;;;;;;;;;;;;;5071908;28;19952;-73
2023/08/12 06:11:32;;;;;;;;;;;;;;;;;;5073133;28;20025;-72
2023/08/12 06:13:58;;;;;;;;;;;;;;;;;;5070332;28;19917;-72
2023/08/12 06:16:24;;;;;;;;;;;;;;;;;;5088426;28;19922;-67
2023/08/12 06:18:50;;;;;;;;;;;;;;;;;;5072241;28;20007;-66
2023/08/12 06:21:16;;;;;;;;;;;;;;;;;;5072813;28;19921;-65
2023/08/12 06:23:41;;;;;;;;;;;;;;;;;;5064382;28;20003;-65
2023/08/12 06:26:07;;;;;;;;;;;;;;;;;;5068246;28;19913;-65
2023/08/12 06:28:33;;;;;;;;;;;;;;;;;;5068286;28;20058;-66
2023/08/12 06:30:59;;;;;;;;;;;;;;;;;;5071752;28;20268;-65
2023/08/12 06:33:25;;;;;;;;;;;;;;;;;;5068616;28;19913;-68
2023/08/12 06:35:51;;;;;;;;;;;;;;;;;;5063115;28;19923;-65
2023/08/12 06:38:17;;;;;;;;;;;;;;;;;;5073082;28;20364;-65
2023/08/12 06:40:43;;;;;;;;;;;;;;;;;;5072847;28;20004;-65
2023/08/12 06:43:09;;;;;;;;;;;;;;;;;;5067709;28;20330;-67
2023/08/12 06:45:35;;;;;;;;;;;;;;;;;;5071647;28;19920;-66
2023/08/12 06:48:02;;;;;;;;;;;;;;;;;;5068246;28;19982;-65
2023/08/12 06:50:28;;;;;;;;;;;;;;;;;;5070447;28;19923;-65
2023/08/12 06:52:53;;;;;;;;;;;;;;;;;;5066498;28;20584;-65
2023/08/12 06:55:19;;;;;;;;;;;;;;;;;;5069012;28;19921;-64
2023/08/12 06:57:45;;;;;;;;;;;;;;;;;;5062506;28;19917;-64
2023/08/12 07:00:11;;;;;;;;;;;;;;;;;;5072037;28;20453;-64
2023/08/12 07:02:37;;;;;;;;;;;;;;;;;;5070495;28;19921;-64
2023/08/12 07:05:03;;;;;;;;;;;;;;;;;;5071481;28;19920;-64
2023/08/12 07:07:29;;;;;;;;;;;;;;;;;;5064123;28;19927;-64
2023/08/12 07:09:55;;;;;;;;;;;;;;;;;;5064331;28;19963;-64
2023/08/12 07:12:21;;;;;;;;;;;;;;;;;;5070727;28;19923;-64
2023/08/12 07:14:47;;;;;;;;;;;;;;;;;;5067945;28;19916;-64
2023/08/12 07:17:13;;;;;;;;;;;;;;;;;;5060526;28;19960;-64
2023/08/12 07:19:39;;;;;;;;;;;;;;;;;;5079017;28;20334;-64
2023/08/12 07:22:04;;;;;;;;;;;;;;;;;;5066394;28;20319;-65
2023/08/12 07:24:30;;;;;;;;;;;;;;;;;;5068734;28;20001;-64
2023/08/12 07:26:56;;;;;;;;;;;;;;;;;;5070383;28;20006;-76
2023/08/12 07:29:22;;;;;;;;;;;;;;;;;;5072034;28;19915;-76
2023/08/12 07:31:48;;;;;;;;;;;;;;;;;;5067742;28;20027;-74
2023/08/12 07:34:14;;;;;;;;;;;;;;;;;;5055530;28;19913;-71
2023/08/12 07:36:40;;;;;;;;;;;;;;;;;;5068457;28;19955;-73
2023/08/12 07:39:06;;;;;;;;;;;;;;;;;;5082196;28;19913;-72
2023/08/12 07:41:32;;;;;;;;;;;;;;;;;;5066273;28;19951;-76
2023/08/12 07:43:58;;;;;;;;;;;;;;;;;;5065337;28;19920;-76
2023/08/12 07:46:24;;;;;;;;;;;;;;;;;;5066274;28;20429;-76
2023/08/12 07:48:49;;;;;;;;;;;;;;;;;;5068667;28;19912;-76
2023/08/12 07:51:15;;;;;;;;;;;;;;;;;;5068948;28;20011;-76
2023/08/12 07:53:41;;;;;;;;;;;;;;;;;;5064449;28;19915;-75
2023/08/12 07:56:08;;;;;;;;;;;;;;;;;;5069847;28;20006;-76
2023/08/12 07:58:34;;;;;;;;;;;;;;;;;;5068924;28;19920;-75
2023/08/12 08:01:00;;;;;;;;;;;;;;;;;;5061821;28;20009;-76
2023/08/12 08:03:26;;;;;;;;;;;;;;;;;;5068750;28;19920;-75
2023/08/12 08:05:52;;;;;;;;;;;;;;;;;;5068953;28;20387;-77
2023/08/12 08:08:18;;;;;;;;;;;;;;;;;;5067624;28;19926;-73
2023/08/12 08:10:44;;;;;;;;;;;;;;;;;;5077270;28;19912;-76
2023/08/12 08:13:10;;;;;;;;;;;;;;;;;;5067379;28;19966;-75
2023/08/12 08:15:36;;;;;;;;;;;;;;;;;;5070004;28;19971;-75
2023/08/12 08:18:03;;;;;;;;;;;;;;;;;;5066938;28;19913;-76
2023/08/12 08:20:29;;;;;;;;;;;;;;;;;;5061495;28;19952;-75
2023/08/12 08:22:55;;;;;;;;;;;;;;;;;;5068978;28;19962;-75
2023/08/12 08:25:21;;;;;;;;;;;;;;;;;;5068220;28;19943;-76
2023/08/12 08:27:47;;;;;;;;;;;;;;;;;;5066061;28;20368;-76
2023/08/12 08:30:13;;;;;;;;;;;;;;;;;;5067446;28;19916;-75
2023/08/12 08:32:39;;;;;;;;;;;;;;;;;;5067852;28;19974;-75
2023/08/12 08:35:05;;;;;;;;;;;;;;;;;;5069857;28;19920;-75
2023/08/12 08:37:31;;;;;;;;;;;;;;;;;;5061153;28;19955;-70
2023/08/12 08:39:57;;;;;;;;;;;;;;;;;;5058627;28;19921;-72
2023/08/12 08:42:23;;;;;;;;;;;;;;;;;;5061907;28;20273;-73
2023/08/12 08:44:49;;;;;;;;;;;;;;;;;;5065679;28;19931;-72
2023/08/12 08:47:15;;;;;;;;;;;;;;;;;;5063844;28;19912;-72
2023/08/12 08:49:41;;;;;;;;;;;;;;;;;;5066442;28;20292;-72
2023/08/12 08:52:07;;;;;;;;;;;;;;;;;;5051961;28;19978;-73
2023/08/12 08:54:33;;;;;;;;;;;;;;;;;;5060942;28;19913;-72
2023/08/12 08:56:59;;;;;;;;;;;;;;;;;;5060409;28;20095;-68
2023/08/12 08:59:25;;;;;;;;;;;;;;;;;;5067930;28;19913;-73
2023/08/12 09:01:53;;;;;;;;;;;;;;;;;;5068611;28;19962;-73
2023/08/12 09:04:19;;;;;;;;;;;;;;;;;;5068267;28;19920;-72
2023/08/12 09:06:45;;;;;;;;;;;;;;;;;;5064390;28;19975;-72
2023/08/12 09:09:11;;;;;;;;;;;;;;;;;;5070893;28;19908;-73
2023/08/12 09:11:37;;;;;;;;;;;;;;;;;;5066654;28;19923;-72
2023/08/12 09:14:03;;;;;;;;;;;;;;;;;;5067866;28;19919;-73
2023/08/12 09:16:29;;;;;;;;;;;;;;;;;;5074285;28;20389;-73
2023/08/12 09:18:55;;;;;;;;;;;;;;;;;;5074479;28;20003;-72
2023/08/12 09:21:21;;;;;;;;;;;;;;;;;;5072187;28;19920;-72
2023/08/12 09:23:47;;;;;;;;;;;;;;;;;;5073245;28;20142;-73
2023/08/12 09:26:13;;;;;;;;;;;;;;;;;;5073637;28;20292;-73
2023/08/12 09:28:39;;;;;;;;;;;;;;;;;;5066650;28;19943;-72
2023/08/12 09:31:05;;;;;;;;;;;;;;;;;;5070987;28;19928;-73
2023/08/12 09:33:31;;;;;;;;;;;;;;;;;;5069609;28;20568;-73
2023/08/12 09:35:57;;;;;;;;;;;;;;;;;;5071799;28;20026;-72
2023/08/12 09:38:23;;;;;;;;;;;;;;;;;;5074546;28;19919;-72
2023/08/12 09:40:49;;;;;;;;;;;;;;;;;;5070312;28;20050;-72
2023/08/12 09:43:16;;;;;;;;;;;;;;;;;;5073320;28;19938;-72
2023/08/12 09:45:42;;;;;;;;;;;;;;;;;;5075994;28;20011;-70
2023/08/12 09:48:08;;;;;;;;;;;;;;;;;;5065583;28;20487;-74
2023/08/12 09:50:34;;;;;;;;;;;;;;;;;;5068081;28;20102;-75
2023/08/12 09:53:00;;;;;;;;;;;;;;;;;;5069555;28;20039;-75
2023/08/12 09:55:26;;;;;;;;;;;;;;;;;;5069829;28;19919;-77
2023/08/12 09:57:52;;;;;;;;;;;;;;;;;;5066288;28;20344;-74
2023/08/12 10:00:19;;;;;;;;;;;;;;;;;;5065184;28;19955;-75
2023/08/12 10:02:45;;;;;;;;;;;;;;;;;;5071436;28;20033;-74
2023/08/12 10:05:11;;;;;;;;;;;;;;;;;;5064382;28;19913;-75
2023/08/12 10:07:37;;;;;;;;;;;;;;;;;;5070785;28;19994;-75
2023/08/12 10:10:03;;;;;;;;;;;;;;;;;;5073144;28;20999;-75
2023/08/12 10:12:29;;;;;;;;;;;;;;;;;;5066210;28;19917;-75
2023/08/12 10:14:55;;;;;;;;;;;;;;;;;;5082966;28;20016;-75
2023/08/12 10:17:21;;;;;;;;;;;;;;;;;;5072473;28;19981;-75
2023/08/12 10:19:47;;;;;;;;;;;;;;;;;;5070743;28;19967;-75
2023/08/12 10:22:14;;;;;;;;;;;;;;;;;;5072235;28;20314;-76
2023/08/12 10:24:40;;;;;;;;;;;;;;;;;;5072568;28;19919;-75
2023/08/12 10:27:06;;;;;;;;;;;;;;;;;;5073326;28;20424;-71
2023/08/12 10:29:32;;;;;;;;;;;;;;;;;;5067421;28;19951;-75
2023/08/12 10:31:58;;;;;;;;;;;;;;;;;;5072016;28;20042;-76
2023/08/12 10:34:24;;;;;;;;;;;;;;;;;;5070438;28;19912;-71
2023/08/12 10:36:50;;;;;;;;;;;;;;;;;;5071809;28;20390;-76
2023/08/12 10:39:16;;;;;;;;;;;;;;;;;;5066495;28;19976;-74
2023/08/12 10:41:41;;;;;;;;;;;;;;;;;;5063323;28;20007;-73
2023/08/12 10:44:07;;;;;;;;;;;;;;;;;;5065166;28;19969;-76
2023/08/12 10:46:33;;;;;;;;;;;;;;;;;;5069706;28;20414;-75
2023/08/12 10:49:01;;;;;;;;;;;;;;;;;;5064556;28;19951;-75
2023/08/12 10:51:27;;;;;;;;;;;;;;;;;;5058296;28;19966;-77
2023/08/12 10:53:53;;;;;;;;;;;;;;;;;;5070023;28;20407;-73
2023/08/12 10:56:19;;;;;;;;;;;;;;;;;;5066331;28;19934;-71
2023/08/12 10:58:45;;;;;;;;;;;;;;;;;;5070675;28;19931;-71
2023/08/12 11:01:11;;;;;;;;;;;;;;;;;;5069324;28;19919;-72
2023/08/12 11:03:37;;;;;;;;;;;;;;;;;;5069747;28;19959;-72
2023/08/12 11:06:03;;;;;;;;;;;;;;;;;;5068054;28;19967;-71
2023/08/12 11:08:29;;;;;;;;;;;;;;;;;;5069730;28;19971;-71
2023/08/12 11:10:55;;;;;;;;;;;;;;;;;;5070426;28;19917;-72
2023/08/12 11:13:21;;;;;;;;;;;;;;;;;;5068446;28;19923;-72
2023/08/12 11:15:47;;;;;;;;;;;;;;;;;;5069890;28;19917;-71
2023/08/12 11:18:14;;;;;;;;;;;;;;;;;;5068194;28;20015;-71
2023/08/12 11:20:39;;;;;;;;;;;;;;;;;;5069296;28;19928;-72
2023/08/12 11:23:05;;;;;;;;;;;;;;;;;;5071522;28;20021;-72
2023/08/12 11:25:31;;;;;;;;;;;;;;;;;;5067812;28;19955;-71
2023/08/12 11:27:57;;;;;;;;;;;;;;;;;;5068827;28;19967;-69
2023/08/12 11:30:23;;;;;;;;;;;;;;;;;;5070249;28;19916;-71
2023/08/12 11:32:49;;;;;;;;;;;;;;;;;;5068095;28;20868;-71
2023/08/12 11:35:16;;;;;;;;;;;;;;;;;;5067008;28;19927;-69
2023/08/12 11:37:42;;;;;;;;;;;;;;;;;;5064732;28;19912;-71
2023/08/12 11:40:08;;;;;;;;;;;;;;;;;;5065929;28;19993;-70
2023/08/12 11:42:34;;;;;;;;;;;;;;;;;;5070992;28;20335;-72
2023/08/12 11:45:00;;;;;;;;;;;;;;;;;;5062550;28;19979;-70
2023/08/12 11:47:26;;;;;;;;;;;;;;;;;;5069299;28;19916;-71
2023/08/12 11:49:52;;;;;;;;;;;;;;;;;;5056469;28;20322;-72
2023/08/12 11:52:18;;;;;;;;;;;;;;;;;;5061864;28;19980;-72
2023/08/12 11:54:44;;;;;;;;;;;;;;;;;;5071865;28;20303;-70
2023/08/12 11:57:10;;;;;;;;;;;;;;;;;;5066348;28;19967;-68
2023/08/12 11:59:36;;;;;;;;;;;;;;;;;;5064021;28;19960;-68
2023/08/12 12:02:02;;;;;;;;;;;;;;;;;;5065358;28;19948;-70
2023/08/12 12:04:28;;;;;;;;;;;;;;;;;;5069603;28;19917;-70
2023/08/12 12:06:54;;;;;;;;;;;;;;;;;;5064660;28;20424;-67
2023/08/12 12:09:20;;;;;;;;;;;;;;;;;;5068759;28;19917;-65
2023/08/12 12:11:46;;;;;;;;;;;;;;;;;;5064295;28;19920;-65
2023/08/12 12:14:12;;;;;;;;;;;;;;;;;;5061912;28;20313;-65
2023/08/12 12:16:39;;;;;;;;;;;;;;;;;;5069678;28;20025;-65
2023/08/12 12:19:06;;;;;;;;;;;;;;;;;;5071247;28;19924;-65
2023/08/12 12:21:31;;;;;;;;;;;;;;;;;;5069039;28;19923;-65
2023/08/12 12:23:57;;;;;;;;;;;;;;;;;;5065972;28;19912;-64
2023/08/12 12:26:23;;;;;;;;;;;;;;;;;;5071442;28;20357;-64
2023/08/12 12:28:49;;;;;;;;;;;;;;;;;;5068917;28;19916;-66
2023/08/12 12:31:15;;;;;;;;;;;;;;;;;;5059634;28;20013;-65
2023/08/12 12:33:41;;;;;;;;;;;;;;;;;;5065509;28;19913;-65
2023/08/12 12:36:07;;;;;;;;;;;;;;;;;;5069641;28;19923;-65
2023/08/12 12:38:33;;;;;;;;;;;;;;;;;;5064140;28;20371;-65
2023/08/12 12:40:59;;;;;;;;;;;;;;;;;;5068120;28;19928;-65
2023/08/12 12:43:25;;;;;;;;;;;;;;;;;;5061032;28;19958;-67
2023/08/12 12:45:51;;;;;;;;;;;;;;;;;;5077268;28;19951;-65
2023/08/12 12:48:17;;;;;;;;;;;;;;;;;;5070570;28;20055;-65
2023/08/12 12:50:42;;;;;;;;;;;;;;;;;;5071074;28;20034;-66
2023/08/12 12:53:08;;;;;;;;;;;;;;;;;;5070166;28;19916;-66
2023/08/12 12:55:34;;;;;;;;;;;;;;;;;;5070886;28;19959;-65
2023/08/12 12:58:00;;;;;;;;;;;;;;;;;;5072705;28;20295;-65
2023/08/12 13:00:26;;;;;;;;;;;;;;;;;;5071904;28;19919;-65
2023/08/12 13:02:52;;;;;;;;;;;;;;;;;;5072317;28;19912;-65
2023/08/12 13:05:18;;;;;;;;;;;;;;;;;;5070907;28;20364;-65
2023/08/12 13:07:44;;;;;;;;;;;;;;;;;;5074932;28;19969;-65
2023/08/12 13:10:10;;;;;;;;;;;;;;;;;;5074274;28;19912;-65
2023/08/12 13:12:35;;;;;;;;;;;;;;;;;;5072710;28;20437;-66
2023/08/12 13:15:01;;;;;;;;;;;;;;;;;;5070688;28;19989;-65
2023/08/12 13:17:27;;;;;;;;;;;;;;;;;;5071030;28;19920;-73
2023/08/12 13:19:53;;;;;;;;;;;;;;;;;;5072392;28;19960;-73
2023/08/12 13:22:19;;;;;;;;;;;;;;;;;;5074516;28;19923;-72
2023/08/12 13:24:46;;;;;;;;;;;;;;;;;;5072781;28;19912;-70
2023/08/12 13:27:13;;;;;;;;;;;;;;;;;;5074059;28;19912;-71
2023/08/12 13:29:39;;;;;;;;;;;;;;;;;;5072457;28;19912;-70
2023/08/12 13:32:05;;;;;;;;;;;;;;;;;;5067298;28;19986;-72
2023/08/12 13:34:31;;;;;;;;;;;;;;;;;;5072470;28;20026;-73
2023/08/12 13:36:56;;;;;;;;;;;;;;;;;;5074448;28;19952;-72
2023/08/12 13:39:22;;;;;;;;;;;;;;;;;;5070936;28;19919;-72
2023/08/12 13:41:48;;;;;;;;;;;;;;;;;;5072380;28;19913;-72
2023/08/12 13:44:14;;;;;;;;;;;;;;;;;;5067548;28;19966;-72
2023/08/12 13:46:40;;;;;;;;;;;;;;;;;;5073602;28;19913;-70
2023/08/12 13:49:06;;;;;;;;;;;;;;;;;;5064856;28;20386;-69
2023/08/12 13:51:32;;;;;;;;;;;;;;;;;;5065024;28;19951;-69
2023/08/12 13:53:58;;;;;;;;;;;;;;;;;;5065065;28;19916;-72
2023/08/12 13:56:24;;;;;;;;;;;;;;;;;;5058936;28;20422;-71
2023/08/12 13:58:49;;;;;;;;;;;;;;;;;;5068409;28;19913;-72
2023/08/12 14:01:15;;;;;;;;;;;;;;;;;;5069753;28;20280;-72
2023/08/12 14:03:41;;;;;;;;;;;;;;;;;;5071988;28;19963;-69
2023/08/12 14:06:07;;;;;;;;;;;;;;;;;;5063607;28;19913;-69
2023/08/12 14:08:33;;;;;;;;;;;;;;;;;;5071727;28;19916;-69
2023/08/12 14:10:59;;;;;;;;;;;;;;;;;;5071187;28;19916;-70
2023/08/12 14:13:25;;;;;;;;;;;;;;;;;;5068992;28;20379;-70
2023/08/12 14:15:51;;;;;;;;;;;;;;;;;;5072877;28;19974;-71
2023/08/12 14:18:17;;;;;;;;;;;;;;;;;;5067350;28;19993;-71
2023/08/12 14:20:43;;;;;;;;;;;;;;;;;;5063741;28;19967;-71
2023/08/12 14:23:09;;;;;;;;;;;;;;;;;;5070535;28;19920;-71
2023/08/12 14:25:35;;;;;;;;;;;;;;;;;;5072957;28;19955;-71
2023/08/12 14:28:00;;;;;;;;;;;;;;;;;;5067405;28;19967;-65
2023/08/12 14:30:26;;;;;;;;;;;;;;;;;;5071060;28;19917;-64
2023/08/12 14:32:52;;;;;;;;;;;;;;;;;;5071525;28;19977;-63
2023/08/12 14:35:18;;;;;;;;;;;;;;;;;;5073097;28;20019;-63
2023/08/12 14:37:44;;;;;;;;;;;;;;;;;;5072916;28;19970;-65
2023/08/12 14:40:10;;;;;;;;;;;;;;;;;;5067044;28;20329;-65
2023/08/12 14:42:36;;;;;;;;;;;;;;;;;;5064696;28;20362;-64
2023/08/12 14:45:02;;;;;;;;;;;;;;;;;;5076521;28;19935;-63
2023/08/12 14:47:28;;;;;;;;;;;;;;;;;;5062554;28;20376;-63
2023/08/12 14:49:54;;;;;;;;;;;;;;;;;;5063111;28;20015;-64
2023/08/12 14:52:20;;;;;;;;;;;;;;;;;;5066261;28;20429;-66
2023/08/12 14:54:46;;;;;;;;;;;;;;;;;;5067893;28;19921;-66
2023/08/12 14:57:12;;;;;;;;;;;;;;;;;;5070560;28;19951;-65
2023/08/12 14:59:38;;;;;;;;;;;;;;;;;;5068091;28;19963;-66
2023/08/12 15:02:04;;;;;;;;;;;;;;;;;;5071300;28;19919;-66
2023/08/12 15:04:30;;;;;;;;;;;;;;;;;;5069486;28;19967;-66
2023/08/12 15:06:56;;;;;;;;;;;;;;;;;;5074699;28;19913;-66
2023/08/12 15:09:22;;;;;;;;;;;;;;;;;;5071713;28;19916;-66
2023/08/12 15:11:47;;;;;;;;;;;;;;;;;;5066860;28;20280;-67
2023/08/12 15:14:13;;;;;;;;;;;;;;;;;;5069367;28;19920;-68
2023/08/12 15:16:39;;;;;;;;;;;;;;;;;;5059359;28;19982;-67
2023/08/12 15:19:05;;;;;;;;;;;;;;;;;;5070101;28;20578;-67
2023/08/12 15:21:31;;;;;;;;;;;;;;;;;;5067469;28;19952;-67
2023/08/12 15:23:57;;;;;;;;;;;;;;;;;;5066636;28;19913;-67
2023/08/12 15:26:23;;;;;;;;;;;;;;;;;;5071799;28;19923;-64
2023/08/12 15:28:49;;;;;;;;;;;;;;;;;;5069004;28;19970;-65
2023/08/12 15:31:15;;;;;;;;;;;;;;;;;;5061675;28;19960;-65
2023/08/12 15:33:41;;;;;;;;;;;;;;;;;;5069044;28;19951;-65
2023/08/12 15:36:07;;;;;;;;;;;;;;;;;;5062385;28;19916;-63
2023/08/12 15:38:33;;;;;;;;;;;;;;;;;;5066377;28;20001;-71
2023/08/12 15:40:59;;;;;;;;;;;;;;;;;;5070631;28;19916;-72
2023/08/12 15:43:25;;;;;;;;;;;;;;;;;;5069549;28;19917;-76
2023/08/12 15:45:51;;;;;;;;;;;;;;;;;;5069885;28;19912;-76
2023/08/12 15:48:17;;;;;;;;;;;;;;;;;;5070161;28;19967;-75
2023/08/12 15:50:44;;;;;;;;;;;;;;;;;;5066993;28;20399;-75
2023/08/12 15:53:10;;;;;;;;;;;;;;;;;;5064778;28;19917;-76
2023/08/12 15:55:35;;;;;;;;;;;;;;;;;;5056391;28;19981;-74
2023/08/12 15:58:01;;;;;;;;;;;;;;;;;;5066921;28;19913;-75
2023/08/12 16:00:27;;;;;;;;;;;;;;;;;;5070764;28;19998;-75
2023/08/12 16:02:54;;;;;;;;;;;;;;;;;;5062513;28;20253;-74
2023/08/12 16:05:19;;;;;;;;;;;;;;;;;;5071425;28;19925;-74
2023/08/12 16:07:45;;;;;;;;;;;;;;;;;;5062777;28;20382;-72
2023/08/12 16:10:11;;;;;;;;;;;;;;;;;;5066872;28;19919;-74
2023/08/12 16:12:37;;;;;;;;;;;;;;;;;;5067854;28;19983;-76
2023/08/12 16:15:03;;;;;;;;;;;;;;;;;;5068099;28;19913;-75
2023/08/12 16:17:29;;;;;;;;;;;;;;;;;;5066191;28;19948;-76
2023/08/12 16:19:56;;;;;;;;;;;;;;;;;;5070376;28;19920;-75
2023/08/12 16:22:22;;;;;;;;;;;;;;;;;;5061458;28;20361;-73
2023/08/12 16:24:47;;;;;;;;;;;;;;;;;;5062463;28;20009;-75
2023/08/12 16:27:13;;;;;;;;;;;;;;;;;;5068441;28;19916;-75
2023/08/12 16:29:39;;;;;;;;;;;;;;;;;;5063744;28;19951;-72
2023/08/12 16:32:05;;;;;;;;;;;;;;;;;;5066139;28;20384;-75
2023/08/12 16:34:31;;;;;;;;;;;;;;;;;;5070393;28;19999;-73
2023/08/12 16:36:57;;;;;;;;;;;;;;;;;;5068246;28;19997;-76